Hyde Park, UT

5:00 PM MDT on September 22, 2014 (GMT -0600)
Ogden-Hinckley | Change Station
CLOSE
Current Station
Airport
Location: Ogden,
Elevation: 4469 ft
Nearby Weather Stations

Elev 4469 ft 41.20 °N, 112.01 °W | Updated 7 minutes ago

Partly Cloudy
Partly Cloudy
74 °F
Feels Like 74 °F
N
7
Wind Variable Wind from WSW

Today
High -- | Low -- °F
--% Chance of Precip.
Yesterday
High -- | Low -- °F
Precip. -- in
7:14 AM 7:24 PM
Waning Crescent, 2% visible
Pressure 29.99 in
Visibility 10.0 miles
Clouds Mostly Cloudy 10000 ft
Dew Point 48 °F
Humidity 40%
Rainfall 0.03 in
Snow Depth 0 in , 0 in , 0 in
UV 1 out of 12
Pollen 4.20 out of 12
PM2.5 Good
Flu Activity Not available.
METAR KOGD 222253Z 25006KT 10SM BKN100 23/09 A3012 RMK AO2 SLP154 T02330089

More Conditions Fewer Conditions

Pressure 29.99 in
Visibility 10.0 miles
Clouds Mostly Cloudy 10000 ft
Dew Point 48 °F
Humidity 40%
Rainfall 0.03 in
Snow Depth 0 in , 0 in , 0 in
UV 1 out of 12
Pollen 4.20 out of 12
PM2.5 Good
Flu Activity Not available.
METAR KOGD 222253Z 25006KT 10SM BKN100 23/09 A3012 RMK AO2 SLP154 T02330089

More Conditions Fewer Conditions

10-Day Weather Forecast

Almanac

Astronomy

Sep. 22, 2014 Rise Set
Actual Time 7:14 AM MDT 7:24 PM MDT
Civil Twilight 6:46 AM MDT 7:52 PM MDT
Nautical Twilight 6:14 AM MDT 8:24 PM MDT
Astronomical Twilight 5:41 AM MDT 8:57 PM MDT
Moon 5:45 AM MDT 6:34 PM MDT
Length of Visible Light 13h 05m
Length of Day
12h 09m
Tomorrow will be 2m 47s shorter.
Waning Crescent, 2% of the Moon is Illuminated
Today
Waning Crescent
Sep 24
New
Oct 1
First Quarter
Oct 8
Full
Oct 15
Last Quarter

Today's Extremes

State Highs State Lows

Community

WunderPhotos

Upload Photos

1,755,548 photos uploaded!

Nearby

Air Quality

  Air Quality AQ Index Pollutant
Yesterday Good
OZONE
Yesterday Good
PM2.5
Current Good
PM2.5

Snow Depth

Station Depth Elevation
King's Cabin 0 in 8730 ft
Brighton 0 in 8750 ft
Chalk Creek #1 0 in 9100 ft
Louis Meadow 0 in 6700 ft
Horse Ridge 0 in 8160 ft

Earthquake Activity

City Distance Mag. Time & Date
No recent earthquake activity has been reported nearby.
Minimum magnitude displayed is 2.5.

Coastal Water Temperatures

Place Temperature
No Stations Reporting

Nearby Weather Stations